Time;durP1;ratioP1;P1;durP2;ratioP2;P2;SDS_P1;SDS_P2;PMS_P1;PMS_P2;Temp;Humidity;BMP_temperature;BMP_pressure;BME280_temperature;BME280_humidity;BME280_pressure;Samples;Min_cycle;Max_cycle;Signal;HPM_P1;HPM_P2
2022/05/24 00:02:05;;;;;;;9.02;5.50;;;;;;;19.25;64.25;94387.47;5050802;28;20171;-84
2022/05/24 00:04:31;;;;;;;9.85;4.95;;;;;;;18.89;63.66;94330.84;5032420;28;20213;-84
2022/05/24 00:06:58;;;;;;;10.70;5.05;;;;;;;18.88;64.18;94336.44;5051057;28;20557;-84
2022/05/24 00:09:24;;;;;;;12.57;4.88;;;;;;;18.74;64.65;94312.25;5050941;28;20175;-84
2022/05/24 00:11:49;;;;;;;12.57;5.25;;;;;;;19.08;63.72;94363.03;5035345;28;20612;-84
2022/05/24 00:14:15;;;;;;;9.07;3.90;;;;;;;18.90;62.55;94345.78;5030329;28;20194;-84
2022/05/24 00:16:40;;;;;;;7.18;4.30;;;;;;;18.98;63.61;94368.41;5033289;28;20261;-84
2022/05/24 00:19:06;;;;;;;8.23;3.63;;;;;;;19.01;63.23;94392.69;5038374;28;20227;-84
2022/05/24 00:21:31;;;;;;;6.55;4.05;;;;;;;18.72;63.59;94336.53;5039274;28;20618;-84
2022/05/24 00:23:57;;;;;;;8.25;3.80;;;;;;;19.01;61.84;94391.88;5028062;28;20195;-83
2022/05/24 00:26:31;;;;;;;8.50;4.32;;;;;;;18.37;62.01;94313.44;5038552;28;20175;-84
2022/05/24 00:28:57;;;;;;;8.43;4.05;;;;;;;18.23;61.22;94307.13;5036717;28;20558;-84
2022/05/24 00:31:22;;;;;;;6.18;3.85;;;;;;;18.38;60.99;94336.38;5043281;28;20171;-84
2022/05/24 00:33:48;;;;;;;7.30;3.75;;;;;;;18.72;61.21;94405.06;5045580;28;20198;-84
2022/05/24 00:36:13;;;;;;;5.93;3.28;;;;;;;18.43;60.84;94356.88;5037105;28;20675;-84
2022/05/24 00:38:39;;;;;;;6.00;3.92;;;;;;;18.40;61.38;94386.75;5054770;28;20167;-84
2022/05/24 00:41:13;;;;;;;6.53;3.70;;;;;;;18.34;61.63;94395.81;5054523;28;20182;-84
2022/05/24 00:43:45;;;;;;;4.63;3.42;;;;;;;18.30;61.47;94406.22;5054556;28;20249;-84
2022/05/24 00:46:18;;;;;;;6.00;3.78;;;;;;;18.34;62.10;94409.13;5053595;28;20611;-84
2022/05/24 00:48:58;;;;;;;8.10;4.45;;;;;;;18.38;61.89;94415.53;5053632;28;20206;-84
2022/05/24 00:51:30;;;;;;;10.05;2.92;;;;;;;18.42;60.35;94411.28;5051581;28;20163;-84
2022/05/24 00:53:56;;;;;;;6.57;3.05;;;;;;;18.27;61.13;94406.75;5047434;28;20202;-84
2022/05/24 00:56:46;;;;;;;3.28;2.65;;;;;;;18.19;60.66;94407.28;5026358;28;20559;-84
2022/05/24 00:59:32;;;;;;;6.43;3.10;;;;;;;17.97;61.21;94378.31;5050577;28;20262;-84
2022/05/24 01:01:58;;;;;;;6.30;2.60;;;;;;;18.20;60.28;94414.22;5054049;28;20171;-84
2022/05/24 01:04:24;;;;;;;3.60;2.50;;;;;;;17.97;60.31;94388.16;5054157;28;20159;-85
2022/05/24 01:06:50;;;;;;;3.10;2.20;;;;;;;17.81;60.47;94354.63;5035975;28;20194;-85
2022/05/24 01:09:23;;;;;;;9.77;2.63;;;;;;;18.25;59.96;94424.88;5035960;28;20175;-84
2022/05/24 01:11:53;;;;;;;3.08;2.53;;;;;;;17.93;59.18;94358.59;5048941;28;20256;-84
2022/05/24 01:14:22;;;;;;;7.30;2.60;;;;;;;17.83;59.33;94323.97;5053767;28;20198;-84
2022/05/24 01:16:48;;;;;;;9.05;2.63;;;;;;;18.30;59.44;94408.88;5054455;28;20175;-84
2022/05/24 01:19:30;;;;;;;4.05;2.53;;;;;;;17.96;59.31;94346.59;5035665;28;20296;-84
2022/05/24 01:22:01;;;;;;;6.03;2.63;;;;;;;18.39;58.99;94412.59;5053694;28;20254;-84
2022/05/24 01:24:37;;;;;;;5.03;2.15;;;;;;;18.22;58.94;94387.31;5053553;28;20708;-85
2022/05/24 01:27:03;;;;;;;6.40;2.70;;;;;;;18.16;58.55;94377.75;5052561;28;20167;-83
2022/05/24 01:29:28;;;;;;;3.47;2.35;;;;;;;18.29;58.80;94411.81;5053326;28;20167;-84
2022/05/24 01:37:27;;;;;;;4.80;2.92;;;;;;;18.21;59.17;94381.19;5045813;28;20287;-83
2022/05/24 01:39:56;;;;;;;4.55;2.30;;;;;;;18.01;59.09;94363.38;5034140;28;20178;-83
2022/05/24 01:42:23;;;;;;;4.45;2.30;;;;;;;17.71;59.32;94334.13;5036191;28;20174;-84
2022/05/24 01:44:54;;;;;;;3.53;2.20;;;;;;;18.12;59.19;94390.78;5047119;28;20216;-83
2022/05/24 01:47:22;;;;;;;5.07;2.55;;;;;;;18.14;59.41;94406.53;5045372;28;20233;-83
2022/05/24 01:49:53;;;;;;;4.05;2.25;;;;;;;18.04;59.53;94404.66;5040466;28;20232;-84
2022/05/24 01:52:29;;;;;;;6.68;3.00;;;;;;;17.81;59.77;94367.94;5035471;28;20254;-84
2022/05/24 01:55:03;;;;;;;3.38;2.42;;;;;;;17.59;60.02;94339.69;5052779;28;20183;-83
2022/05/24 01:57:33;;;;;;;3.67;2.35;;;;;;;17.96;60.49;94408.66;5043159;28;20163;-84
2022/05/24 02:00:03;;;;;;;6.22;3.25;;;;;;;17.41;60.11;94316.25;5041387;28;20176;-83
2022/05/24 02:02:28;;;;;;;3.95;2.55;;;;;;;17.66;60.58;94366.06;5049374;28;20179;-83
2022/05/24 02:04:54;;;;;;;3.80;2.15;;;;;;;18.00;60.40;94424.88;5023244;28;20182;-84
2022/05/24 02:07:23;;;;;;;3.60;2.35;;;;;;;18.05;60.59;94419.59;5045140;28;20178;-83
2022/05/24 02:09:54;;;;;;;4.93;2.50;;;;;;;18.08;60.59;94416.34;5051839;28;20242;-84
2022/05/24 02:12:38;;;;;;;4.60;2.38;;;;;;;18.08;60.77;94421.69;5053569;28;20155;-84
2022/05/24 02:15:29;;;;;;;4.25;2.80;;;;;;;18.10;60.77;94420.38;5053708;28;20274;-84
2022/05/24 02:18:08;;;;;;;7.07;2.75;;;;;;;17.91;61.19;94399.84;5030287;28;20309;-83
2022/05/24 02:20:40;;;;;;;6.18;2.80;;;;;;;18.04;61.39;94420.63;5052396;28;20202;-83
2022/05/24 02:23:07;;;;;;;3.03;2.55;;;;;;;17.82;61.95;94380.16;5052545;28;20178;-84
2022/05/24 02:25:32;;;;;;;4.22;3.10;;;;;;;18.11;61.56;94402.50;5053209;28;20167;-84
2022/05/24 02:27:58;;;;;;;5.38;3.00;;;;;;;17.60;61.75;94314.66;5053232;28;20622;-84
2022/05/24 02:30:26;;;;;;;5.57;3.08;;;;;;;18.09;62.12;94378.81;5032006;28;20187;-84
2022/05/24 02:32:51;;;;;;;3.38;3.03;;;;;;;17.80;63.30;94376.97;5049620;28;20195;-84
2022/05/24 02:35:17;;;;;;;5.53;2.90;;;;;;;17.60;63.59;94351.94;5034497;28;20211;-83
2022/05/24 02:37:43;;;;;;;7.05;2.75;;;;;;;17.65;63.46;94373.25;5052656;28;20236;-84
2022/05/24 02:42:54;;;;;;;8.15;3.10;;;;;;;17.50;64.56;94383.06;5053356;28;20197;-84
2022/05/24 02:45:20;;;;;;;5.13;3.00;;;;;;;17.72;65.17;94428.91;5034203;28;20721;-84
2022/05/24 02:47:45;;;;;;;5.75;2.88;;;;;;;17.46;65.11;94390.00;5051981;28;20253;-83
2022/05/24 02:50:11;;;;;;;8.52;3.65;;;;;;;17.39;65.45;94384.91;5052035;28;20716;-84
2022/05/24 02:52:38;;;;;;;3.85;2.45;;;;;;;17.34;65.61;94382.25;5033446;28;20182;-84
2022/05/24 02:55:05;;;;;;;4.38;2.90;;;;;;;17.21;65.82;94358.81;5052422;28;20195;-84
2022/05/24 02:57:30;;;;;;;3.20;2.40;;;;;;;17.35;65.63;94367.88;5034720;28;20172;-84
2022/05/24 02:59:56;;;;;;;5.07;2.70;;;;;;;17.52;65.53;94392.38;5034208;28;20937;-83
2022/05/24 03:02:21;;;;;;;9.80;2.80;;;;;;;17.25;65.07;94351.91;5051704;28;20228;-84
2022/05/24 03:04:47;;;;;;;8.10;2.92;;;;;;;17.81;65.06;94434.50;5051588;28;20167;-83
2022/05/24 03:09:57;;;;;;;6.47;2.63;;;;;;;17.24;65.45;94359.09;5049012;28;20178;-84
2022/05/24 03:15:07;;;;;;;17.45;3.20;;;;;;;17.49;65.72;94408.88;5052322;28;20317;-84
2022/05/24 03:17:32;;;;;;;3.72;2.80;;;;;;;17.39;66.23;94414.16;5051801;28;20268;-83
2022/05/24 03:19:58;;;;;;;9.35;3.35;;;;;;;17.47;66.76;94437.59;5023795;28;20183;-83
2022/05/24 03:22:24;;;;;;;3.58;2.83;;;;;;;16.87;66.83;94351.28;5042912;28;20237;-83
2022/05/24 03:24:49;;;;;;;7.28;3.08;;;;;;;17.09;67.21;94392.84;5033691;28;20160;-83
2022/05/24 03:27:15;;;;;;;5.05;3.17;;;;;;;17.22;67.75;94422.38;5014495;28;20172;-83
2022/05/24 03:29:42;;;;;;;3.83;2.72;;;;;;;17.19;68.18;94427.44;5015812;28;20175;-84
2022/05/24 03:32:09;;;;;;;9.18;2.95;;;;;;;17.22;68.39;94416.28;5048425;28;20167;-83
2022/05/24 03:34:36;;;;;;;7.43;4.03;;;;;;;17.04;68.17;94384.88;5051404;28;20191;-84
2022/05/24 03:37:01;;;;;;;12.38;5.53;;;;;;;17.34;68.11;94419.50;5023876;28;20182;-84
2022/05/24 03:39:27;;;;;;;8.68;3.58;;;;;;;17.15;67.57;94379.28;5022954;28;20171;-84
2022/05/24 03:41:52;;;;;;;11.05;3.42;;;;;;;17.19;67.50;94374.25;5026403;28;20226;-84
2022/05/24 03:44:18;;;;;;;4.35;3.00;;;;;;;17.10;67.12;94360.66;5048546;28;20182;-83
2022/05/24 03:46:43;;;;;;;4.57;2.83;;;;;;;17.55;67.18;94423.00;5045179;28;20164;-83
2022/05/24 03:49:09;;;;;;;4.53;2.75;;;;;;;17.62;66.79;94435.03;5051028;28;20227;-83
2022/05/24 03:51:35;;;;;;;11.90;3.53;;;;;;;17.28;67.14;94364.69;5051201;28;20654;-83
2022/05/24 03:54:00;;;;;;;7.50;2.92;;;;;;;17.80;66.21;94430.25;5040316;28;20272;-83
2022/05/24 03:56:26;;;;;;;6.90;3.33;;;;;;;17.48;65.94;94374.53;5031844;28;20621;-83
2022/05/24 03:58:52;;;;;;;12.13;3.58;;;;;;;17.46;65.96;94364.19;5014195;28;20249;-83
2022/05/24 04:01:18;;;;;;;6.80;3.40;;;;;;;17.95;65.89;94438.22;5042606;28;20197;-83
2022/05/24 04:03:43;;;;;;;6.50;3.33;;;;;;;17.76;65.60;94403.34;5045538;28;20168;-83
2022/05/24 04:06:10;;;;;;;11.93;3.83;;;;;;;17.85;65.42;94415.06;5044908;28;20175;-83
2022/05/24 04:08:36;;;;;;;6.93;2.83;;;;;;;17.82;65.04;94394.28;5044423;28;20187;-82
2022/05/24 04:11:07;;;;;;;3.80;3.30;;;;;;;18.26;64.14;94461.09;5042400;28;20175;-83
2022/05/24 04:13:33;;;;;;;8.95;3.40;;;;;;;18.23;64.38;94456.34;5054533;28;20202;-83
2022/05/24 04:15:59;;;;;;;6.70;3.63;;;;;;;18.23;64.48;94456.34;5054622;28;20182;-83
2022/05/24 04:18:25;;;;;;;5.80;3.17;;;;;;;18.31;64.56;94453.13;5054350;28;20218;-83
2022/05/24 04:20:50;;;;;;;9.48;3.80;;;;;;;18.27;64.89;94459.25;5054527;28;20182;-83
2022/05/24 04:23:17;;;;;;;6.65;3.38;;;;;;;18.06;64.74;94435.31;5054770;28;20187;-83
2022/05/24 04:25:43;;;;;;;4.28;2.97;;;;;;;18.05;64.52;94425.72;5054255;28;20166;-83
2022/05/24 04:28:08;;;;;;;6.75;3.55;;;;;;;18.27;65.09;94456.59;5054519;28;20171;-83
2022/05/24 04:30:34;;;;;;;5.20;3.17;;;;;;;18.12;64.98;94398.78;5054096;28;20163;-83
2022/05/24 04:33:00;;;;;;;6.15;3.25;;;;;;;18.23;63.35;94411.03;5054503;28;20541;-83
2022/05/24 04:35:26;;;;;;;7.40;3.40;;;;;;;18.54;63.32;94453.63;5045309;28;20213;-83
2022/05/24 04:37:52;;;;;;;8.32;3.85;;;;;;;18.36;63.90;94407.81;5035391;28;20639;-83
2022/05/24 04:40:18;;;;;;;6.93;3.10;;;;;;;18.74;62.20;94451.75;5054010;28;20173;-83
2022/05/24 04:42:43;;;;;;;7.78;3.55;;;;;;;18.83;62.19;94430.63;5035352;28;20214;-83
2022/05/24 04:45:14;;;;;;;7.82;3.67;;;;;;;19.01;61.59;94438.03;5054002;28;20171;-83
2022/05/24 04:47:39;;;;;;;6.25;3.20;;;;;;;19.33;61.32;94445.63;5036324;28;20174;-83
2022/05/24 04:50:10;;;;;;;7.55;3.55;;;;;;;19.34;60.53;94406.38;5054374;28;20175;-83
2022/05/24 04:52:38;;;;;;;10.70;4.13;;;;;;;20.08;59.58;94462.25;5047319;28;20175;-83
2022/05/24 04:55:06;;;;;;;9.20;3.30;;;;;;;20.12;57.45;94427.75;5044544;28;20200;-84
2022/05/24 04:57:32;;;;;;;4.75;3.13;;;;;;;20.53;57.32;94433.53;5053991;28;20171;-84
2022/05/24 04:59:57;;;;;;;8.02;3.65;;;;;;;20.92;56.27;94426.16;5036129;28;20186;-84
2022/05/24 05:02:23;;;;;;;10.07;3.78;;;;;;;21.48;54.49;94487.06;5053898;28;20182;-84
2022/05/24 05:04:49;;;;;;;11.82;2.95;;;;;;;21.02;53.65;94425.22;5052395;28;20167;-84
2022/05/24 05:07:16;;;;;;;4.80;3.53;;;;;;;21.41;53.18;94484.75;5054003;28;20529;-84
2022/05/24 05:09:43;;;;;;;13.07;7.53;;;;;;;21.76;53.62;94491.53;5053622;28;20171;-84
2022/05/24 05:12:10;;;;;;;8.18;3.80;;;;;;;21.98;52.15;94450.75;5030526;28;20373;-84
2022/05/24 05:14:39;;;;;;;9.98;4.40;;;;;;;22.82;50.96;94494.47;5030216;28;20198;-84
2022/05/24 05:17:05;;;;;;;8.18;3.45;;;;;;;23.00;49.02;94490.09;5025689;28;20235;-85
2022/05/24 05:19:31;;;;;;;11.38;3.28;;;;;;;22.56;49.40;94442.28;5047292;28;20215;-84
2022/05/24 05:21:57;;;;;;;9.88;3.58;;;;;;;22.24;50.18;94427.00;5044891;28;20202;-84
2022/05/24 05:24:24;;;;;;;12.80;5.63;;;;;;;22.35;50.28;94495.50;5035850;28;20178;-84
2022/05/24 05:26:49;;;;;;;13.48;4.15;;;;;;;22.06;52.19;94503.72;5016635;28;20294;-84
2022/05/24 05:29:15;;;;;;;13.10;7.50;;;;;;;22.11;53.43;94492.91;5042639;28;20218;-84
2022/05/24 05:31:41;;;;;;;9.20;3.58;;;;;;;22.37;52.20;94482.59;5035601;28;20615;-84
2022/05/24 05:34:07;;;;;;;11.65;6.90;;;;;;;22.76;49.62;94502.88;5047946;28;20195;-84
2022/05/24 05:36:33;;;;;;;6.20;3.92;;;;;;;22.90;50.28;94511.78;5050607;28;20225;-84
2022/05/24 05:39:00;;;;;;;4.50;3.95;;;;;;;23.02;48.98;94449.50;5053140;28;20171;-84
2022/05/24 05:41:28;;;;;;;7.53;3.70;;;;;;;23.84;47.48;94517.44;5053261;28;20223;-86
2022/05/24 05:43:55;;;;;;;6.25;3.10;;;;;;;24.31;45.63;94513.44;5053339;28;20160;-85
2022/05/24 05:46:21;;;;;;;13.32;5.00;;;;;;;24.77;45.56;94509.63;5053886;28;20163;-85
2022/05/24 05:48:47;;;;;;;8.80;3.00;;;;;;;25.06;43.56;94517.28;5035462;28;20262;-85
2022/05/24 05:51:15;;;;;;;7.50;3.72;;;;;;;25.19;42.81;94521.75;5040603;28;20243;-85
2022/05/24 05:53:41;;;;;;;9.40;3.55;;;;;;;24.93;43.62;94518.16;5040693;28;20216;-85
2022/05/24 05:56:21;;;;;;;5.70;3.47;;;;;;;24.72;44.63;94523.25;5053067;28;20201;-85
2022/05/24 05:58:48;;;;;;;5.95;4.03;;;;;;;24.50;44.31;94499.81;5049221;28;20173;-85
2022/05/24 06:01:20;;;;;;;7.70;3.50;;;;;;;25.09;44.58;94524.72;5052916;28;20242;-85
2022/05/24 06:03:46;;;;;;;6.15;3.10;;;;;;;25.30;45.17;94517.69;5052745;28;20155;-85
2022/05/24 06:06:21;;;;;;;8.15;3.25;;;;;;;25.29;44.85;94482.97;5053232;28;20646;-85
2022/05/24 06:08:46;;;;;;;7.45;3.03;;;;;;;25.68;43.15;94534.19;5053832;28;20250;-85
2022/05/24 06:11:12;;;;;;;7.57;3.28;;;;;;;25.49;43.21;94537.13;5053830;28;20274;-86
2022/05/24 06:13:38;;;;;;;5.60;3.50;;;;;;;25.12;45.60;94507.94;5035600;28;20268;-85
2022/05/24 06:16:04;;;;;;;5.45;3.00;;;;;;;25.43;44.72;94519.47;5036122;28;20673;-85
2022/05/24 06:18:29;;;;;;;7.80;2.90;;;;;;;25.58;41.61;94506.69;5036245;28;20661;-85
2022/05/24 06:20:54;;;;;;;4.70;3.92;;;;;;;25.41;42.21;94496.66;5053973;28;20225;-86
2022/05/24 06:23:20;;;;;;;9.00;3.53;;;;;;;25.16;43.36;94496.25;5048362;28;20661;-85
2022/05/24 06:25:45;;;;;;;6.63;4.10;;;;;;;24.66;43.68;94527.94;5053116;28;20650;-85
2022/05/24 06:28:13;;;;;;;5.00;3.30;;;;;;;24.66;45.33;94536.00;5052997;28;20194;-84
2022/05/24 06:30:39;;;;;;;8.05;3.78;;;;;;;24.49;45.27;94448.97;5052304;28;20167;-84
2022/05/24 06:33:05;;;;;;;4.43;3.50;;;;;;;24.63;43.98;94453.19;5039144;28;20554;-85
2022/05/24 06:35:31;;;;;;;6.55;3.53;;;;;;;24.52;44.18;94469.91;5037527;28;20192;-85
2022/05/24 06:37:56;;;;;;;9.27;3.70;;;;;;;24.40;44.53;94465.84;5023659;28;20179;-85
2022/05/24 06:40:22;;;;;;;10.80;3.47;;;;;;;24.62;45.34;94494.66;5052163;28;20182;-85
2022/05/24 06:42:47;;;;;;;3.90;3.00;;;;;;;24.69;45.16;94453.84;5052192;28;20171;-85
2022/05/24 06:45:13;;;;;;;13.10;3.53;;;;;;;25.38;43.14;94514.22;5051943;28;20166;-85
2022/05/24 06:47:40;;;;;;;8.10;2.92;;;;;;;25.31;44.23;94453.81;5052346;28;20175;-84
2022/05/24 06:50:06;;;;;;;7.55;3.92;;;;;;;25.61;42.36;94479.91;5051940;28;20266;-84
2022/05/24 06:52:32;;;;;;;9.95;4.22;;;;;;;25.72;44.90;94464.22;5052320;28;20202;-85
2022/05/24 06:54:57;;;;;;;7.22;5.25;;;;;;;25.89;42.75;94453.44;5052176;28;20733;-85
2022/05/24 06:57:23;;;;;;;8.20;4.10;;;;;;;26.27;42.44;94453.66;5051924;28;20549;-85
2022/05/24 07:02:33;;;;;;;5.45;4.20;;;;;;;26.76;39.71;94498.19;5039302;28;20248;-85
2022/05/24 07:05:14;;;;;;;7.22;4.20;;;;;;;26.49;40.63;94463.44;5047490;28;20163;-85
2022/05/24 07:07:40;;;;;;;6.32;3.42;;;;;;;26.68;40.10;94494.41;5028264;28;20198;-85
2022/05/24 07:10:09;;;;;;;5.30;3.53;;;;;;;26.78;40.88;94495.97;5043284;28;20187;-85
2022/05/24 07:12:35;;;;;;;8.75;4.25;;;;;;;26.67;39.68;94465.81;5032439;28;20175;-85
2022/05/24 07:15:00;;;;;;;8.45;3.92;;;;;;;26.51;39.69;94464.72;5051340;28;20252;-85
2022/05/24 07:17:26;;;;;;;9.90;4.05;;;;;;;26.72;42.52;94491.06;5044953;28;20182;-85
2022/05/24 07:19:52;;;;;;;8.10;4.20;;;;;;;26.31;39.82;94441.09;5021957;28;20184;-85
2022/05/24 07:22:18;;;;;;;6.65;4.28;;;;;;;26.78;41.43;94495.97;5043144;28;20172;-85
2022/05/24 07:24:48;;;;;;;12.35;4.05;;;;;;;26.97;41.87;94511.84;5051465;28;20225;-84
2022/05/24 07:27:15;;;;;;;11.20;4.53;;;;;;;27.28;42.38;94506.97;5050151;28;20226;-82
2022/05/24 07:29:41;;;;;;;7.78;3.85;;;;;;;27.50;39.52;94472.69;5042910;28;20175;-85
2022/05/24 07:32:07;;;;;;;6.38;4.03;;;;;;;27.69;40.12;94508.22;5041636;28;20178;-84
2022/05/24 07:34:34;;;;;;;12.40;4.10;;;;;;;27.26;38.42;94460.53;5031904;28;20620;-84
2022/05/24 07:37:01;;;;;;;10.02;3.97;;;;;;;27.42;38.56;94498.63;5051112;28;20258;-84
2022/05/24 07:39:26;;;;;;;7.60;4.38;;;;;;;27.03;40.07;94470.03;5033597;28;20178;-85
2022/05/24 07:47:20;;;;;;;9.80;4.10;;;;;;;27.98;39.45;94494.69;5051107;28;20173;-83
2022/05/24 07:49:46;;;;;;;6.72;3.50;;;;;;;27.69;39.95;94457.63;5051164;28;20191;-85
2022/05/24 07:52:11;;;;;;;7.55;3.60;;;;;;;27.81;40.25;94446.09;5051668;28;20202;-84
2022/05/24 07:54:37;;;;;;;9.48;4.35;;;;;;;27.59;38.69;94468.06;5050207;28;20256;-83
2022/05/24 07:57:08;;;;;;;9.10;4.25;;;;;;;27.63;40.36;94496.03;5052341;28;20556;-85
2022/05/24 07:59:35;;;;;;;13.85;4.60;;;;;;;26.93;39.55;94451.47;5044350;28;20168;-86
2022/05/24 08:02:06;;;;;;;5.90;3.58;;;;;;;27.05;40.64;94435.38;5033341;28;20178;-86
2022/05/24 08:04:31;;;;;;;5.47;3.78;;;;;;;27.19;39.95;94417.00;5050403;28;20173;-86
2022/05/24 08:06:57;;;;;;;10.73;3.70;;;;;;;27.42;39.76;94439.94;5032985;28;20292;-87
2022/05/24 08:09:22;;;;;;;8.55;3.20;;;;;;;27.99;38.49;94484.66;5051814;28;20190;-81
2022/05/24 08:11:48;;;;;;;10.60;5.38;;;;;;;28.28;38.87;94489.25;5033209;28;20167;-84
2022/05/24 08:14:13;;;;;;;5.80;3.42;;;;;;;28.14;40.62;94457.78;5045966;28;20206;-84
2022/05/24 08:16:39;;;;;;;7.00;3.40;;;;;;;28.30;37.91;94490.47;5050127;28;20524;-85
2022/05/24 08:19:05;;;;;;;10.80;4.18;;;;;;;28.02;39.83;94498.31;5046850;28;20231;-82
2022/05/24 08:21:31;;;;;;;11.10;4.05;;;;;;;28.15;38.84;94482.94;5051664;28;20233;-82
2022/05/24 08:23:56;;;;;;;6.20;3.38;;;;;;;28.02;39.84;94497.53;5042520;28;20262;-82
2022/05/24 08:26:22;;;;;;;12.82;5.07;;;;;;;27.54;38.66;94450.09;5051089;28;20668;-83
2022/05/24 08:28:47;;;;;;;5.03;3.30;;;;;;;27.49;41.35;94446.75;5050299;28;20164;-83
2022/05/24 08:31:14;;;;;;;8.80;4.05;;;;;;;27.75;40.67;94458.25;5052258;28;20203;-86
2022/05/24 08:33:40;;;;;;;13.30;3.97;;;;;;;27.63;40.49;94485.19;5047627;28;20596;-82
2022/05/24 08:36:06;;;;;;;5.47;3.90;;;;;;;27.42;40.58;94439.13;5049377;28;20181;-85
2022/05/24 08:38:32;;;;;;;7.15;3.85;;;;;;;27.68;39.17;94482.28;5037460;28;20361;-84
2022/05/24 08:41:02;;;;;;;9.07;4.65;;;;;;;27.63;40.27;94483.28;5050207;28;20314;-83
2022/05/24 08:43:36;;;;;;;12.90;4.78;;;;;;;27.64;40.83;94478.69;5049401;28;20167;-84
2022/05/24 08:49:05;;;;;;;8.25;3.92;;;;;;;27.58;40.86;94483.50;5042507;28;20681;-82
2022/05/24 08:51:40;;;;;;;7.47;4.78;;;;;;;27.50;40.66;94486.22;5032371;28;20249;-83
2022/05/24 08:54:11;;;;;;;8.40;4.50;;;;;;;27.38;40.94;94493.09;5052550;28;20639;-82
2022/05/24 08:56:45;;;;;;;9.32;4.45;;;;;;;26.80;41.76;94431.63;5052164;28;20168;-83
2022/05/24 08:59:18;;;;;;;8.88;3.72;;;;;;;27.13;41.65;94488.59;5051010;28;20171;-83
2022/05/24 09:01:45;;;;;;;8.75;3.63;;;;;;;27.09;42.82;94482.22;5045498;28;20183;-83
2022/05/24 09:04:12;;;;;;;7.22;3.97;;;;;;;27.22;42.03;94486.66;5029284;28;20184;-83
2022/05/24 09:06:56;;;;;;;7.72;3.83;;;;;;;27.31;41.45;94490.13;5053157;28;20461;-83
2022/05/24 09:09:28;;;;;;;10.35;4.00;;;;;;;27.12;42.28;94481.59;5052933;28;20183;-82
2022/05/24 09:12:15;;;;;;;8.48;4.15;;;;;;;26.72;43.70;94472.97;5052699;28;20203;-83
2022/05/24 09:15:10;;;;;;;12.80;4.30;;;;;;;26.70;43.80;94468.97;5051678;28;20195;-82
2022/05/24 09:17:52;;;;;;;5.60;4.18;;;;;;;27.14;42.50;94462.34;5016967;28;20229;-82
2022/05/24 09:20:29;;;;;;;9.75;4.07;;;;;;;27.13;41.89;94466.97;5047335;28;20580;-82
2022/05/24 09:23:03;;;;;;;8.55;4.22;;;;;;;27.14;41.99;94462.34;5051140;28;20179;-82
2022/05/24 09:25:29;;;;;;;7.40;3.50;;;;;;;26.96;42.83;94453.53;5053254;28;20167;-82
2022/05/24 09:27:55;;;;;;;15.48;5.00;;;;;;;27.15;42.78;94450.44;5025885;28;20637;-81
2022/05/24 09:30:23;;;;;;;10.52;3.92;;;;;;;27.32;42.04;94444.94;5050580;28;20254;-82
2022/05/24 09:32:49;;;;;;;6.38;4.32;;;;;;;27.55;43.54;94448.19;5037605;28;20164;-82
2022/05/24 09:35:23;;;;;;;4.85;3.55;;;;;;;27.56;41.05;94458.66;5052940;28;20203;-82
2022/05/24 09:38:04;;;;;;;15.98;4.20;;;;;;;27.37;41.64;94460.97;5050976;28;20695;-83
2022/05/24 09:40:42;;;;;;;6.88;4.80;;;;;;;27.33;44.13;94468.94;5052378;28;20243;-83
2022/05/24 09:43:29;;;;;;;6.95;3.80;;;;;;;27.46;42.93;94466.34;5045965;28;20617;-83
2022/05/24 09:45:59;;;;;;;9.93;4.20;;;;;;;26.83;42.17;94459.88;5061038;28;20190;-83
2022/05/24 09:48:30;;;;;;;6.50;4.03;;;;;;;26.93;42.71;94454.94;5031310;28;20214;-83
2022/05/24 09:50:58;;;;;;;8.60;4.35;;;;;;;27.04;44.31;94464.31;5049946;28;20175;-83
2022/05/24 09:53:28;;;;;;;9.77;4.22;;;;;;;27.02;43.87;94422.50;5034447;28;20174;-85
2022/05/24 09:56:01;;;;;;;7.25;4.07;;;;;;;27.26;42.50;94452.44;5051656;28;20207;-83
2022/05/24 09:58:50;;;;;;;8.30;4.25;;;;;;;27.29;43.21;94442.88;5051448;28;20566;-82
2022/05/24 10:01:31;;;;;;;5.00;3.88;;;;;;;27.44;42.21;94447.72;5052230;28;20183;-83
2022/05/24 10:04:14;;;;;;;8.25;3.85;;;;;;;27.41;43.93;94446.47;5052106;28;20202;-83
2022/05/24 10:06:42;;;;;;;11.07;3.95;;;;;;;27.47;43.27;94451.69;5035059;28;20170;-81
2022/05/24 10:09:19;;;;;;;7.07;3.63;;;;;;;27.28;41.77;94444.78;5050398;28;20255;-82
2022/05/24 10:11:52;;;;;;;10.05;4.15;;;;;;;27.07;44.41;94443.91;5044469;28;20662;-82
2022/05/24 10:14:33;;;;;;;6.68;4.30;;;;;;;26.92;43.35;94447.97;5050480;28;20206;-82
2022/05/24 10:17:14;;;;;;;7.35;4.07;;;;;;;26.76;43.38;94443.38;5052788;28;20210;-82
2022/05/24 10:19:58;;;;;;;7.72;4.78;;;;;;;26.49;45.68;94445.34;5033534;28;20183;-85
2022/05/24 10:22:34;;;;;;;11.63;4.13;;;;;;;26.71;45.33;94454.38;5053359;28;20159;-84
2022/05/24 10:25:21;;;;;;;10.60;4.15;;;;;;;26.65;44.32;94451.81;5035730;28;20171;-84
2022/05/24 10:28:15;;;;;;;6.88;4.10;;;;;;;26.70;43.60;94433.88;5053520;28;20163;-83
2022/05/24 10:31:08;;;;;;;11.30;4.32;;;;;;;26.85;45.42;94430.63;5048700;28;20565;-88
2022/05/24 10:40:21;;;;;;;5.32;3.95;;;;;;;26.86;44.47;94422.22;4972061;28;20724;-84
2022/05/24 10:43:14;;;;;;;9.52;5.18;;;;;;;26.87;44.72;94417.59;5049889;28;20263;-84
2022/05/24 10:45:52;;;;;;;7.18;4.55;;;;;;;26.79;44.09;94408.41;5051606;28;20167;-84
2022/05/24 10:48:20;;;;;;;5.22;4.63;;;;;;;26.94;45.01;94407.09;5051548;28;20158;-84
2022/05/24 10:50:56;;;;;;;6.50;3.80;;;;;;;26.81;44.67;94389.94;5049515;28;20237;-81
2022/05/24 10:53:34;;;;;;;6.95;5.07;;;;;;;27.07;44.59;94405.31;5051071;28;20175;-81
2022/05/24 10:56:06;;;;;;;12.07;5.60;;;;;;;27.02;44.63;94390.84;5049819;28;20202;-84
2022/05/24 10:58:38;;;;;;;8.20;4.95;;;;;;;27.29;44.85;94400.41;5051360;28;20179;-83
2022/05/24 11:01:17;;;;;;;10.25;4.20;;;;;;;27.47;43.06;94411.91;5049419;28;20254;-84
2022/05/24 11:03:49;;;;;;;9.73;4.80;;;;;;;27.23;44.06;94382.81;5051733;28;20666;-81
2022/05/24 11:06:31;;;;;;;11.77;4.95;;;;;;;27.39;44.38;94396.53;5051145;28;20258;-83
2022/05/24 11:09:04;;;;;;;5.35;4.30;;;;;;;26.82;45.54;94359.13;5050370;28;20240;-87
2022/05/24 11:11:39;;;;;;;8.55;4.60;;;;;;;26.96;46.39;94396.78;5033461;28;20193;-85
2022/05/24 11:14:15;;;;;;;7.50;4.90;;;;;;;26.64;46.50;94366.50;5030520;28;20204;-84
2022/05/24 11:16:43;;;;;;;12.32;5.28;;;;;;;26.60;45.77;94383.69;5047629;28;20182;-86
2022/05/24 11:19:36;;;;;;;7.75;5.00;;;;;;;26.28;46.85;94390.44;5044765;28;20223;-83
2022/05/24 11:22:10;;;;;;;11.48;4.65;;;;;;;25.97;47.16;94349.34;5038333;28;20223;-86
2022/05/24 11:25:06;;;;;;;8.60;4.80;;;;;;;26.06;48.80;94366.31;5049224;28;20179;-87
2022/05/24 11:27:37;;;;;;;13.45;5.63;;;;;;;26.16;49.33;94372.19;5046266;28;20179;-87
2022/05/24 11:30:28;;;;;;;8.02;4.90;;;;;;;26.20;46.59;94348.06;5041888;28;20191;-87
2022/05/24 11:33:02;;;;;;;10.20;4.75;;;;;;;26.38;46.68;94367.72;5042677;28;20186;-88
2022/05/24 11:35:35;;;;;;;11.65;5.03;;;;;;;26.36;46.83;94357.25;5047513;28;20202;-87
2022/05/24 11:38:30;;;;;;;7.65;4.80;;;;;;;26.26;47.62;94336.78;5031605;28;20272;-86
2022/05/24 11:41:02;;;;;;;10.75;5.72;;;;;;;26.42;47.77;94352.44;5046602;28;20195;-86
2022/05/24 11:43:43;;;;;;;6.18;4.82;;;;;;;26.43;47.92;94346.75;5033034;28;20564;-87
2022/05/24 11:46:30;;;;;;;7.82;4.50;;;;;;;26.50;46.53;94348.94;5050740;28;20179;-88
2022/05/24 11:48:57;;;;;;;7.07;4.97;;;;;;;26.20;47.10;94285.97;5048564;28;20623;-87
2022/05/24 11:51:46;;;;;;;8.65;4.57;;;;;;;26.51;46.96;94334.31;5049829;28;20179;-88
2022/05/24 11:54:18;;;;;;;11.15;4.97;;;;;;;26.45;47.09;94331.00;5032740;28;20198;-88
2022/05/24 11:57:02;;;;;;;17.13;5.30;;;;;;;26.37;48.45;94325.66;5046786;28;20190;-87
2022/05/24 11:59:48;;;;;;;11.15;6.22;;;;;;;26.37;47.59;94318.34;5031169;28;20559;-88
2022/05/24 12:02:27;;;;;;;13.65;5.68;;;;;;;26.45;48.03;94316.72;5031055;28;20203;-87
2022/05/24 12:08:05;;;;;;;10.10;4.70;;;;;;;26.54;46.35;94293.97;5045860;28;20194;-87
2022/05/24 12:10:43;;;;;;;10.88;6.72;;;;;;;26.47;47.51;94272.06;5047462;28;20237;-88
2022/05/24 12:13:23;;;;;;;9.07;4.95;;;;;;;26.78;49.41;94284.47;5047471;28;20186;-88
2022/05/24 12:15:59;;;;;;;6.78;5.05;;;;;;;26.96;47.86;94280.59;5029256;28;20202;-88
2022/05/24 12:18:38;;;;;;;11.00;5.53;;;;;;;27.10;47.04;94289.22;5031233;28;21338;-83
2022/05/24 12:21:04;;;;;;;7.07;4.78;;;;;;;26.98;46.83;94262.13;5030858;28;20178;-82